Aérodrome :
LOGIN :

S'inscrire | Disclaimer

   EN    FR    IT 

 










Légende :    VFR   VFR Marginal   IFR   IFR Intensif   IFR Très Intensif
Visi : 
Plafond : 
>= 8 km
>= 3000ft
5 à 8 km
1000 à 3000 ft
1500m à 5 km
500 à 1000 ft
800 à 1500m
200 à 500 ft
< 800m
< 200 ft
Symboles :   Orages  Brouillard  Fortes neiges  Fortes précipitations  Vent > 20 kt
SIGMETs :   Divers  Orages  Givrage  Turbulence  Onde Orograph.  Cendres Volcan.






- Altitude de l'aérodrome : 82 ft
- Code IATA : QIE


LFMI - Istres

DERNIER METAR :
  • 101100Z AUTO 34032KT CAVOK 10/M00 Q1020 BECMG 34015G30KT

METARs EXPIRÉS :
  • 101030Z AUTO 32019KT CAVOK 10/M00 Q1022 BECMG 34015G30KT
  • 101000Z AUTO 32010KT 280V360 CAVOK 09/M00 Q1023 BECMG 34030G45KT
  • 100930Z AUTO 33025KT CAVOK 09/M00 Q1022 BECMG 34030G45KT
  • 100900Z AUTO 34027KT CAVOK 08/M01 Q1021 BECMG 34030G45KT
  • 100830Z AUTO 35028KT CAVOK 08/M01 Q1021 BECMG 34030G45KT

TAF TAF LFMI
Valide du 10 à 09h jusqu'au 11 à 09h UTC


100800Z 1009/1109 34030G45KT CAVOK
BECMG 1012/1014 34015G30KT
BECMG 1017/1019 36005KT



MET'MAP, la Météo Aéronautique d'un coup d'oeil ! - Copyright ORBIFLY Décembre 2007 - Disclaimer

ORBIFLY MET'MAP TEAM :

Programmation & Développement : Alexandra Zaïnal
Sur une idée originale de : Baudouin d'Aumeries
Assistance à la programmation : Marc-Olivier Méhu
Soutien technique & logistique : Manuel Goepfert

Contact : metmap@orbifly.com




SOURCES & CREDITS :

   NOAA